< Typhoon 197614 1976 Season Typhoon 197616 >
Typhoon 197615 (DOT)
General InformationTrack Information on Google Maps || Disaster Info.ResourceGoogle EarthGE AnimationAtom FeedGeoJSON
Detalied Best Track (Time Zone = UTC)
Year Month Day Hour Lat. Long. Pressure (hPa) Wind (kt) Class Image
1976 8 17 06 16.0 142.0 1004 0 2 No
1976 8 17 12 17.5 141.5 1006 0 2 No
1976 8 17 18 18.5 140.5 1006 0 2 No
1976 8 18 00 19.5 139.0 1006 0 2 No
1976 8 18 06 20.5 137.5 1004 0 2 No
1976 8 18 12 21.5 136.5 1000 0 2 No
1976 8 18 18 22.3 135.2 998 0 2 No
1976 8 19 00 22.9 133.6 996 0 9 No
1976 8 19 06 23.3 132.4 994 0 9 No
1976 8 19 12 24.1 130.6 996 0 9 No
1976 8 19 18 24.8 128.8 996 0 9 No
1976 8 20 00 25.5 127.7 994 0 9 No
1976 8 20 06 26.2 126.5 994 0 9 No
1976 8 20 12 26.8 125.2 990 0 9 No
1976 8 20 18 27.5 123.8 994 0 9 No
1976 8 21 00 28.2 122.7 996 0 9 No
1976 8 21 06 29.1 122.4 998 0 9 No
1976 8 21 12 30.1 122.4 1002 0 2 No
1976 8 21 18 31.0 122.5 1002 0 2 No
1976 8 22 00 32.0 122.5 1002 0 2 No
1976 8 22 06 33.1 123.0 1004 0 2 No
1976 8 22 12 34.0 124.1 1004 0 2 No
1976 8 22 18 35.0 126.8 1002 0 2 No
1976 8 23 00 36.0 129.2 1004 0 6 No
1976 8 23 06 36.8 131.9 1004 0 6 No
1976 8 23 12 38.0 135.0 1004 0 6 No
1976 8 23 18 38.1 137.3 1006 0 6 No
1976 8 24 00 38.1 140.0 1010 0 6 No
1976 8 24 06 39.0 145.5 1010 0 6 No
1976 8 24 12 40.5 151.0 1014 0 6 No
1976 8 24 18 41.0 158.0 1014 0 6 No
1976 8 25 00 41.7 162.2 1018 0 6 No
1976 8 25 06 43.0 167.0 1018 0 6 No
1976 8 25 12 44.0 172.0 1018 0 6 No
Japan Meteorological Agency Best Track Data | Correction Date : 1992-10-21
< Typhoon 197614 1976 Season Typhoon 197616 >

Help